createdAt,value
2019-05-30T00:02:07.395Z,99.90
2019-05-30T00:04:37.110Z,99.90
2019-05-30T00:07:06.137Z,99.90
2019-05-30T00:09:34.710Z,99.90
2019-05-30T00:12:04.886Z,99.90
2019-05-30T00:14:34.001Z,99.90
2019-05-30T00:17:03.072Z,99.90
2019-05-30T00:19:34.022Z,99.90
2019-05-30T00:22:03.912Z,99.90
2019-05-30T00:24:33.093Z,99.90
2019-05-30T00:27:02.432Z,99.70
2019-05-30T00:29:31.443Z,99.60
2019-05-30T00:32:01.507Z,99.80
2019-05-30T00:34:30.439Z,99.90
2019-05-30T00:37:00.243Z,99.90
2019-05-30T00:39:29.112Z,99.90
2019-05-30T00:41:57.917Z,99.90
2019-05-30T00:44:27.338Z,99.90
2019-05-30T00:46:56.145Z,99.90
2019-05-30T00:49:25.175Z,99.90
2019-05-30T00:51:54.076Z,99.90
2019-05-30T00:54:22.903Z,99.90
2019-05-30T00:56:51.642Z,99.90
2019-05-30T00:59:20.506Z,99.90
2019-05-30T01:01:49.317Z,99.90
2019-05-30T01:04:18.151Z,99.90
2019-05-30T01:06:46.995Z,99.90
2019-05-30T01:09:15.787Z,99.90
2019-05-30T01:11:44.363Z,99.90
2019-05-30T01:14:13.263Z,99.90
2019-05-30T01:16:42.738Z,99.90
2019-05-30T01:19:11.804Z,99.90
2019-05-30T01:21:40.846Z,99.90
2019-05-30T01:24:09.665Z,99.90
2019-05-30T01:26:38.593Z,99.90
2019-05-30T01:29:07.778Z,99.90
2019-05-30T01:31:36.735Z,99.90
2019-05-30T01:34:05.860Z,99.90
2019-05-30T01:36:34.831Z,99.90
2019-05-30T01:39:05.874Z,99.90
2019-05-30T01:41:34.724Z,99.90
2019-05-30T01:44:03.966Z,99.90
2019-05-30T01:46:32.824Z,99.90
2019-05-30T01:49:04.395Z,99.90
2019-05-30T01:51:33.337Z,99.90
2019-05-30T01:54:02.550Z,99.90
2019-05-30T01:56:31.423Z,99.90
2019-05-30T01:59:00.558Z,99.90
2019-05-30T02:01:29.701Z,99.90
2019-05-30T02:03:59.123Z,99.90
2019-05-30T02:06:28.119Z,99.90
2019-05-30T02:08:57.054Z,99.90
2019-05-30T02:11:25.908Z,99.90
2019-05-30T02:13:54.875Z,99.90
2019-05-30T02:16:23.757Z,99.90
2019-05-30T02:18:52.663Z,99.90
2019-05-30T02:21:21.622Z,99.90
2019-05-30T02:23:50.179Z,99.90
2019-05-30T02:26:19.067Z,99.90
2019-05-30T02:28:47.914Z,99.90
2019-05-30T02:31:37.363Z,99.90
2019-05-30T02:33:46.941Z,99.90
2019-05-30T02:36:15.863Z,99.90
2019-05-30T02:38:44.749Z,99.90
2019-05-30T02:41:13.744Z,99.90
2019-05-30T02:43:42.332Z,99.90
2019-05-30T02:46:12.598Z,99.90
2019-05-30T02:48:58.117Z,99.90
2019-05-30T02:51:12.822Z,99.90
2019-05-30T02:53:41.801Z,99.90
2019-05-30T02:56:12.470Z,99.90
2019-05-30T02:58:41.391Z,99.90
2019-05-30T03:01:11.954Z,99.90
2019-05-30T03:03:40.176Z,99.90
2019-05-30T03:06:11.059Z,99.90
2019-05-30T03:08:39.677Z,99.90
2019-05-30T03:11:10.867Z,99.90
2019-05-30T03:13:39.619Z,99.90
2019-05-30T03:16:09.324Z,99.90
2019-05-30T03:18:38.443Z,99.90
2019-05-30T03:21:09.292Z,99.90
2019-05-30T03:23:38.102Z,99.90
2019-05-30T03:26:09.693Z,99.90
2019-05-30T03:28:37.640Z,99.90
2019-05-30T03:31:13.948Z,99.90
2019-05-30T03:33:42.244Z,99.90
2019-05-30T03:36:18.822Z,99.90
2019-05-30T03:38:38.864Z,99.90
2019-05-30T03:41:11.294Z,99.90
2019-05-30T03:43:38.772Z,99.90
2019-05-30T03:46:12.718Z,99.90
2019-05-30T03:48:44.302Z,99.90
2019-05-30T03:51:15.482Z,99.90
2019-05-30T03:53:44.493Z,99.90
2019-05-30T03:56:16.568Z,99.90
2019-05-30T03:58:51.532Z,99.90
2019-05-30T04:01:26.108Z,99.90
2019-05-30T04:04:11.567Z,99.90
2019-05-30T04:06:43.406Z,99.90
2019-05-30T04:09:21.598Z,99.90
2019-05-30T04:12:02.117Z,99.90
2019-05-30T04:14:33.753Z,99.90
2019-05-30T04:17:02.331Z,99.90
2019-05-30T04:19:31.272Z,99.90
2019-05-30T04:22:00.042Z,99.90
2019-05-30T04:24:28.869Z,99.90
2019-05-30T04:26:57.868Z,99.90
2019-05-30T04:29:26.657Z,99.90
2019-05-30T04:31:55.543Z,99.90
2019-05-30T04:34:24.439Z,99.90
2019-05-30T04:36:53.861Z,99.90
2019-05-30T04:39:22.822Z,99.90
2019-05-30T04:41:51.660Z,99.90
2019-05-30T04:44:20.699Z,99.90
2019-05-30T04:46:49.515Z,99.90
2019-05-30T04:49:19.703Z,99.80
2019-05-30T04:51:48.985Z,99.50
2019-05-30T04:54:19.244Z,99.40
2019-05-30T04:56:48.242Z,99.50
2019-05-30T04:59:17.507Z,99.50
2019-05-30T05:01:47.732Z,99.70
2019-05-30T05:04:17.728Z,99.50
2019-05-30T05:06:46.745Z,99.50
2019-05-30T05:09:16.015Z,99.90
2019-05-30T05:11:45.010Z,99.20
2019-05-30T05:14:14.330Z,93.60
2019-05-30T05:16:53.041Z,83.60
2019-05-30T05:19:24.708Z,72.00
2019-05-30T05:21:52.201Z,62.10
2019-05-30T05:24:21.455Z,57.10
2019-05-30T05:26:50.267Z,53.60
2019-05-30T05:29:19.865Z,51.30
2019-05-30T05:31:48.680Z,49.60
2019-05-30T05:34:17.180Z,46.80
2019-05-30T05:36:45.607Z,44.90
2019-05-30T05:39:14.332Z,45.20
2019-05-30T05:41:42.760Z,45.10
2019-05-30T05:44:11.462Z,44.10
2019-05-30T05:46:41.157Z,43.70
2019-05-30T05:49:09.847Z,43.00
2019-05-30T05:51:38.545Z,43.40
2019-05-30T05:54:07.302Z,42.60
2019-05-30T05:56:35.715Z,43.10
2019-05-30T05:59:04.503Z,44.50
2019-05-30T06:01:33.234Z,43.70
2019-05-30T06:04:12.537Z,42.90
2019-05-30T06:06:32.500Z,43.70
2019-05-30T06:09:01.231Z,44.60
2019-05-30T06:11:29.923Z,43.80
2019-05-30T06:13:58.606Z,45.30
2019-05-30T06:16:28.403Z,44.10
2019-05-30T06:18:56.927Z,43.10
2019-05-30T06:21:25.638Z,42.40
2019-05-30T06:23:54.355Z,42.50
2019-05-30T06:26:24.177Z,41.60
2019-05-30T06:28:53.074Z,40.80
2019-05-30T06:31:22.457Z,41.30
2019-05-30T06:33:50.909Z,40.20
2019-05-30T06:36:20.858Z,40.60
2019-05-30T06:38:49.681Z,42.10
2019-05-30T06:41:19.380Z,43.00
2019-05-30T06:43:48.115Z,42.70
2019-05-30T06:46:16.816Z,41.50
2019-05-30T06:48:46.480Z,43.60
2019-05-30T06:51:15.185Z,41.50
2019-05-30T06:53:43.903Z,43.60
2019-05-30T06:56:12.604Z,43.30
2019-05-30T06:58:48.347Z,43.40
2019-05-30T07:01:11.907Z,43.70
2019-05-30T07:03:40.548Z,43.10
2019-05-30T07:06:09.712Z,44.80
2019-05-30T07:08:38.720Z,43.80
2019-05-30T07:11:07.418Z,43.80
2019-05-30T07:13:36.122Z,45.10
2019-05-30T07:16:04.978Z,45.10
2019-05-30T07:18:36.500Z,45.60
2019-05-30T07:21:04.004Z,46.20
2019-05-30T07:23:33.945Z,45.10
2019-05-30T07:26:03.660Z,46.10
2019-05-30T07:28:32.583Z,44.50
2019-05-30T07:31:01.726Z,41.30
2019-05-30T07:33:30.705Z,45.30
2019-05-30T07:35:59.391Z,45.40
2019-05-30T07:38:28.395Z,41.40
2019-05-30T07:40:56.987Z,37.90
2019-05-30T07:43:28.141Z,38.90
2019-05-30T07:45:58.214Z,40.70
2019-05-30T07:48:28.023Z,41.50
2019-05-30T07:50:57.107Z,45.30
2019-05-30T07:53:26.660Z,47.00
2019-05-30T07:55:55.556Z,49.00
2019-05-30T07:58:24.392Z,52.20
2019-05-30T08:00:53.265Z,51.20
2019-05-30T08:03:22.070Z,51.30
2019-05-30T08:05:50.920Z,50.40
2019-05-30T08:08:19.738Z,54.00
2019-05-30T08:10:48.591Z,54.20
2019-05-30T08:13:17.399Z,52.50
2019-05-30T08:15:46.217Z,53.20
2019-05-30T08:18:15.079Z,54.30
2019-05-30T08:20:44.109Z,48.10
2019-05-30T08:23:13.208Z,50.90
2019-05-30T08:25:42.215Z,49.90
2019-05-30T08:28:11.191Z,48.50
2019-05-30T08:30:40.094Z,48.60
2019-05-30T08:33:09.071Z,47.00
2019-05-30T08:35:47.701Z,47.40
2019-05-30T08:38:08.822Z,50.50
2019-05-30T08:40:37.782Z,47.70
2019-05-30T08:43:06.652Z,50.70
2019-05-30T08:45:36.103Z,49.20
2019-05-30T08:48:04.685Z,46.70
2019-05-30T08:50:34.137Z,49.60
2019-05-30T08:53:03.181Z,45.90
2019-05-30T08:55:32.414Z,50.00
2019-05-30T08:58:00.939Z,49.50
2019-05-30T09:00:30.201Z,45.50
2019-05-30T09:02:58.982Z,39.70
2019-05-30T09:05:27.490Z,41.70
2019-05-30T09:07:56.452Z,40.80
2019-05-30T09:10:25.491Z,42.90
2019-05-30T09:12:54.006Z,41.90
2019-05-30T09:15:22.848Z,43.10
2019-05-30T09:17:51.708Z,41.20
2019-05-30T09:20:20.672Z,38.90
2019-05-30T09:22:50.242Z,36.80
2019-05-30T09:25:19.156Z,41.00
2019-05-30T09:27:48.371Z,40.60
2019-05-30T09:30:18.680Z,38.00
2019-05-30T09:32:48.553Z,40.40
2019-05-30T09:35:18.183Z,41.20
2019-05-30T09:37:47.826Z,39.90
2019-05-30T09:40:17.315Z,39.90
2019-05-30T09:42:46.946Z,36.70
2019-05-30T09:45:18.067Z,34.00
2019-05-30T09:47:47.401Z,33.20
2019-05-30T09:50:17.812Z,33.40
2019-05-30T09:52:47.116Z,34.40
2019-05-30T09:55:18.096Z,34.90
2019-05-30T09:57:47.558Z,36.40
2019-05-30T10:00:18.917Z,38.40
2019-05-30T10:02:48.635Z,36.40
2019-05-30T10:05:18.773Z,33.30
2019-05-30T10:07:47.606Z,38.70
2019-05-30T10:10:18.682Z,39.90
2019-05-30T10:12:48.382Z,37.10
2019-05-30T10:15:17.727Z,34.70
2019-05-30T10:17:47.726Z,34.90
2019-05-30T10:20:17.884Z,34.40
2019-05-30T10:22:48.660Z,35.70
2019-05-30T10:25:17.526Z,35.30
2019-05-30T10:27:47.935Z,38.50
2019-05-30T10:30:17.745Z,41.10
2019-05-30T10:32:48.161Z,41.00
2019-05-30T10:35:17.834Z,42.30
2019-05-30T10:37:47.116Z,43.20
2019-05-30T10:40:16.410Z,44.70
2019-05-30T10:42:46.204Z,47.60
2019-05-30T10:45:17.363Z,48.10
2019-05-30T10:47:47.486Z,44.70
2019-05-30T10:50:16.918Z,38.80
2019-05-30T10:52:45.865Z,43.00
2019-05-30T10:55:15.100Z,38.40
2019-05-30T10:57:45.239Z,40.50
2019-05-30T11:00:17.305Z,41.00
2019-05-30T11:02:47.849Z,42.50
2019-05-30T11:05:18.747Z,40.60
2019-05-30T11:08:02.019Z,36.20
2019-05-30T11:10:38.961Z,39.40
2019-05-30T11:13:10.317Z,37.50
2019-05-30T11:15:39.407Z,36.90
2019-05-30T11:18:08.487Z,39.70
2019-05-30T11:20:37.502Z,38.30
2019-05-30T11:23:06.505Z,36.90
2019-05-30T11:25:35.218Z,38.20
2019-05-30T11:28:04.833Z,41.40
2019-05-30T11:30:33.534Z,39.70
2019-05-30T11:33:02.315Z,40.50
2019-05-30T11:35:32.627Z,42.00
2019-05-30T11:38:01.184Z,43.00
2019-05-30T11:40:30.056Z,41.40
2019-05-30T11:42:59.969Z,42.30
2019-05-30T11:45:29.184Z,43.20
2019-05-30T11:47:58.184Z,43.70
2019-05-30T11:50:27.110Z,38.60
2019-05-30T11:52:55.875Z,37.20
2019-05-30T11:55:24.790Z,35.10
2019-05-30T11:57:54.655Z,36.40
2019-05-30T12:00:24.516Z,39.20
2019-05-30T12:02:54.299Z,37.60
2019-05-30T12:05:23.393Z,39.50
2019-05-30T12:07:52.865Z,41.90
2019-05-30T12:10:22.848Z,42.50
2019-05-30T12:12:51.415Z,43.90
2019-05-30T12:15:20.240Z,40.80
2019-05-30T12:17:49.101Z,41.10
2019-05-30T12:20:18.293Z,37.70
2019-05-30T12:22:46.817Z,37.60
2019-05-30T12:25:16.314Z,35.70
2019-05-30T12:27:44.842Z,38.50
2019-05-30T12:30:14.337Z,40.30
2019-05-30T12:32:43.193Z,41.80
2019-05-30T12:35:13.980Z,41.30
2019-05-30T12:37:54.061Z,43.50
2019-05-30T12:40:16.198Z,41.80
2019-05-30T12:42:44.994Z,40.30
2019-05-30T12:45:14.095Z,37.00
2019-05-30T12:47:43.442Z,39.50
2019-05-30T12:50:16.700Z,39.70
2019-05-30T12:52:44.368Z,40.20
2019-05-30T12:55:13.319Z,39.20
2019-05-30T12:57:42.115Z,39.60
2019-05-30T13:00:18.469Z,36.90
2019-05-30T13:02:44.136Z,40.60
2019-05-30T13:05:13.298Z,41.30
2019-05-30T13:07:42.119Z,43.30
2019-05-30T13:10:11.454Z,41.70
2019-05-30T13:12:40.382Z,42.70
2019-05-30T13:15:09.287Z,42.60
2019-05-30T13:17:38.091Z,40.70
2019-05-30T13:20:09.529Z,42.60
2019-05-30T13:22:38.545Z,41.90
2019-05-30T13:25:08.263Z,45.20
2019-05-30T13:27:37.127Z,45.10
2019-05-30T13:30:08.124Z,43.50
2019-05-30T13:32:37.001Z,42.30
2019-05-30T13:35:07.663Z,40.80
2019-05-30T13:37:36.510Z,38.50
2019-05-30T13:40:24.253Z,38.50
2019-05-30T13:42:40.606Z,37.40
2019-05-30T13:45:09.429Z,39.90
2019-05-30T13:47:38.351Z,36.00
2019-05-30T13:50:13.958Z,36.70
2019-05-30T13:52:41.615Z,36.00
2019-05-30T13:55:12.268Z,35.40
2019-05-30T13:57:41.032Z,36.60
2019-05-30T14:00:11.346Z,38.00
2019-05-30T14:02:39.934Z,36.70
2019-05-30T14:05:10.539Z,38.20
2019-05-30T14:07:39.577Z,39.30
2019-05-30T14:10:08.830Z,37.60
2019-05-30T14:12:37.793Z,39.10
2019-05-30T14:15:14.042Z,38.80
2019-05-30T14:17:41.767Z,38.20
2019-05-30T14:20:12.023Z,39.20
2019-05-30T14:22:40.772Z,36.90
2019-05-30T14:25:09.903Z,38.30
2019-05-30T14:27:39.300Z,38.30
2019-05-30T14:30:09.355Z,39.50
2019-05-30T14:32:37.894Z,39.40
2019-05-30T14:35:12.294Z,38.70
2019-05-30T14:37:41.777Z,38.20
2019-05-30T14:40:13.097Z,39.90
2019-05-30T14:42:41.771Z,39.30
2019-05-30T14:45:12.515Z,42.40
2019-05-30T14:47:41.500Z,41.30
2019-05-30T14:50:11.232Z,41.20
2019-05-30T14:52:40.074Z,42.30
2019-05-30T14:55:09.402Z,42.10
2019-05-30T14:57:38.265Z,40.80
2019-05-30T15:00:13.785Z,40.30
2019-05-30T15:02:43.040Z,42.00
2019-05-30T15:05:13.749Z,43.30
2019-05-30T15:07:43.121Z,41.90
2019-05-30T15:10:12.793Z,43.00
2019-05-30T15:12:41.816Z,45.10
2019-05-30T15:15:16.624Z,44.30
2019-05-30T15:17:43.926Z,44.30
2019-05-30T15:20:14.763Z,46.30
2019-05-30T15:22:43.615Z,45.90
2019-05-30T15:25:12.409Z,47.80
2019-05-30T15:27:41.378Z,49.00
2019-05-30T15:30:12.629Z,48.90
2019-05-30T15:32:41.686Z,49.20
2019-05-30T15:35:11.104Z,51.20
2019-05-30T15:37:40.878Z,49.00
2019-05-30T15:40:10.992Z,47.80
2019-05-30T15:42:40.020Z,46.60
2019-05-30T15:45:09.939Z,47.20
2019-05-30T15:47:39.150Z,46.90
2019-05-30T15:50:08.740Z,46.80
2019-05-30T15:52:37.765Z,46.50
2019-05-30T15:55:09.267Z,45.70
2019-05-30T15:57:38.123Z,47.10
2019-05-30T16:00:13.862Z,45.50
2019-05-30T16:02:43.100Z,46.20
2019-05-30T16:05:12.626Z,46.40
2019-05-30T16:07:41.644Z,45.50
2019-05-30T16:10:10.836Z,45.70
2019-05-30T16:12:39.943Z,45.40
2019-05-30T16:15:11.675Z,44.00
2019-05-30T16:17:40.714Z,44.10
2019-05-30T16:20:09.849Z,45.20
2019-05-30T16:22:38.744Z,45.30
2019-05-30T16:25:08.263Z,44.20
2019-05-30T16:27:36.755Z,45.20
2019-05-30T16:30:10.566Z,45.10
2019-05-30T16:32:39.529Z,45.00
2019-05-30T16:35:08.443Z,45.40
2019-05-30T16:37:37.338Z,47.70
2019-05-30T16:40:09.309Z,45.60
2019-05-30T16:42:38.310Z,44.30
2019-05-30T16:45:10.830Z,46.10
2019-05-30T16:47:39.713Z,46.20
2019-05-30T16:50:09.929Z,47.20
2019-05-30T16:52:38.580Z,48.00
2019-05-30T16:55:10.618Z,46.40
2019-05-30T16:57:39.157Z,47.00
2019-05-30T17:00:10.396Z,48.00
2019-05-30T17:02:39.252Z,48.80
2019-05-30T17:05:09.792Z,50.00
2019-05-30T17:07:38.647Z,50.80
2019-05-30T17:10:21.580Z,52.40
2019-05-30T17:12:38.768Z,53.60
2019-05-30T17:15:09.323Z,55.00
2019-05-30T17:17:37.860Z,55.60
2019-05-30T17:20:11.806Z,56.30
2019-05-30T17:22:40.480Z,56.70
2019-05-30T17:25:10.801Z,57.30
2019-05-30T17:27:39.587Z,56.30
2019-05-30T17:30:09.615Z,57.50
2019-05-30T17:32:38.474Z,57.50
2019-05-30T17:35:08.296Z,57.80
2019-05-30T17:37:36.811Z,58.60
2019-05-30T17:40:07.022Z,58.00
2019-05-30T17:42:36.038Z,58.30
2019-05-30T17:45:07.144Z,58.00
2019-05-30T17:47:36.063Z,57.20
2019-05-30T17:50:07.220Z,57.40
2019-05-30T17:52:36.088Z,57.70
2019-05-30T17:55:09.646Z,57.70
2019-05-30T17:57:38.526Z,58.70
2019-05-30T18:00:13.130Z,58.60
2019-05-30T18:02:42.727Z,57.60
2019-05-30T18:05:12.305Z,57.50
2019-05-30T18:07:40.878Z,57.20
2019-05-30T18:10:10.729Z,58.00
2019-05-30T18:12:39.686Z,57.50
2019-05-30T18:15:13.943Z,57.90
2019-05-30T18:17:42.419Z,58.40
2019-05-30T18:20:12.649Z,58.60
2019-05-30T18:22:41.544Z,58.90
2019-05-30T18:25:11.328Z,59.40
2019-05-30T18:27:40.165Z,59.60
2019-05-30T18:30:10.282Z,59.70
2019-05-30T18:32:39.276Z,60.00
2019-05-30T18:35:09.057Z,60.20
2019-05-30T18:37:38.655Z,61.10
2019-05-30T18:40:08.944Z,61.70
2019-05-30T18:42:38.046Z,62.10
2019-05-30T18:45:09.210Z,62.70
2019-05-30T18:47:37.771Z,63.50
2019-05-30T18:50:08.144Z,63.80
2019-05-30T18:52:37.036Z,63.50
2019-05-30T18:55:07.478Z,63.10
2019-05-30T18:57:37.373Z,63.60
2019-05-30T19:00:10.025Z,64.20
2019-05-30T19:02:39.683Z,64.70
2019-05-30T19:05:08.976Z,65.60
2019-05-30T19:07:37.831Z,66.30
2019-05-30T19:10:07.409Z,66.90
2019-05-30T19:12:36.537Z,67.60
2019-05-30T19:15:08.089Z,69.60
2019-05-30T19:17:36.920Z,70.60
2019-05-30T19:20:07.411Z,73.00
2019-05-30T19:22:36.503Z,73.80
2019-05-30T19:25:07.399Z,73.80
2019-05-30T19:27:37.082Z,73.40
2019-05-30T19:30:08.674Z,73.60
2019-05-30T19:32:37.601Z,73.70
2019-05-30T19:35:07.906Z,74.40
2019-05-30T19:37:37.592Z,75.30
2019-05-30T19:40:07.197Z,76.70
2019-05-30T19:42:37.899Z,77.10
2019-05-30T19:45:09.175Z,78.30
2019-05-30T19:47:38.733Z,79.10
2019-05-30T19:50:08.449Z,79.80
2019-05-30T19:52:37.322Z,80.50
2019-05-30T19:55:09.086Z,80.70
2019-05-30T19:57:37.971Z,81.20
2019-05-30T20:00:11.338Z,81.10
2019-05-30T20:02:40.583Z,80.60
2019-05-30T20:05:09.925Z,80.50
2019-05-30T20:07:38.889Z,81.10
2019-05-30T20:10:08.193Z,81.90
2019-05-30T20:12:37.224Z,81.80
2019-05-30T20:15:09.035Z,82.60
2019-05-30T20:17:37.876Z,82.90
2019-05-30T20:20:08.558Z,83.50
2019-05-30T20:22:38.233Z,84.70
2019-05-30T20:25:09.718Z,84.50
2019-05-30T20:27:39.009Z,86.20
2019-05-30T20:30:09.165Z,87.60
2019-05-30T20:32:38.781Z,89.60
2019-05-30T20:35:08.078Z,90.00
2019-05-30T20:37:37.036Z,89.60
2019-05-30T20:40:07.895Z,90.00
2019-05-30T20:42:36.775Z,88.10
2019-05-30T20:45:10.125Z,87.30
2019-05-30T20:47:40.728Z,86.80
2019-05-30T20:50:10.286Z,85.30
2019-05-30T20:55:12.037Z,85.60
2019-05-30T20:57:34.218Z,84.80
2019-05-30T20:57:40.789Z,87.30
2019-05-30T21:00:10.930Z,85.40
2019-05-30T21:02:43.670Z,85.20
2019-05-30T21:05:14.848Z,85.60
2019-05-30T21:07:44.420Z,86.10
2019-05-30T21:10:17.932Z,88.10
2019-05-30T21:12:49.420Z,88.30
2019-05-30T21:15:21.065Z,87.20
2019-05-30T21:17:53.682Z,86.70
2019-05-30T21:20:28.638Z,86.60
2019-05-30T21:22:59.110Z,87.50
2019-05-30T21:25:24.873Z,89.10
2019-05-30T21:27:55.165Z,88.70
2019-05-30T21:30:25.844Z,88.60
2019-05-30T21:32:54.950Z,87.80
2019-05-30T21:35:25.739Z,86.50
2019-05-30T21:37:54.835Z,86.60
2019-05-30T21:40:26.121Z,86.80
2019-05-30T21:43:05.227Z,86.80
2019-05-30T21:45:24.477Z,88.00
2019-05-30T21:47:53.388Z,88.40
2019-05-30T21:50:22.293Z,89.50
2019-05-30T21:52:51.213Z,89.20
2019-05-30T21:55:20.244Z,88.80
2019-05-30T21:57:51.882Z,88.60
2019-05-30T22:00:40.213Z,89.50
2019-05-30T22:03:10.251Z,89.10
2019-05-30T22:05:40.767Z,88.80
2019-05-30T22:08:11.679Z,89.80
2019-05-30T22:10:41.252Z,89.90
2019-05-30T22:13:09.899Z,88.40
2019-05-30T22:15:39.013Z,89.30
2019-05-30T22:18:07.980Z,90.00
2019-05-30T22:20:36.828Z,89.50
2019-05-30T22:23:05.689Z,90.90
2019-05-30T22:25:34.636Z,91.40
2019-05-30T22:28:03.557Z,91.70
2019-05-30T22:30:32.586Z,91.80
2019-05-30T22:33:01.510Z,91.50
2019-05-30T22:35:31.607Z,92.10
2019-05-30T22:38:00.461Z,92.30
2019-05-30T22:40:29.427Z,92.00
2019-05-30T22:43:00.189Z,91.90
2019-05-30T22:45:29.162Z,91.50
2019-05-30T22:47:59.676Z,91.10
2019-05-30T22:50:28.350Z,90.50
2019-05-30T22:53:00.478Z,90.60
2019-05-30T22:55:31.039Z,91.00
2019-05-30T22:58:01.277Z,90.70
2019-05-30T23:00:31.166Z,91.10
2019-05-30T23:03:00.090Z,91.20
2019-05-30T23:05:30.748Z,92.10
2019-05-30T23:08:01.675Z,92.30
2019-05-30T23:10:30.320Z,92.70
2019-05-30T23:13:00.306Z,92.40
2019-05-30T23:15:29.332Z,92.60
2019-05-30T23:17:59.500Z,92.40
2019-05-30T23:20:32.317Z,92.10
2019-05-30T23:23:01.220Z,92.30
2019-05-30T23:25:30.040Z,92.60
2019-05-30T23:27:58.631Z,92.30
2019-05-30T23:30:27.619Z,92.60
2019-05-30T23:32:56.371Z,92.80
2019-05-30T23:35:25.216Z,92.00
2019-05-30T23:37:54.723Z,92.30
2019-05-30T23:40:23.762Z,92.70
2019-05-30T23:42:52.995Z,91.80
2019-05-30T23:45:21.991Z,92.20
2019-05-30T23:47:51.333Z,92.60
2019-05-30T23:50:20.416Z,93.10
2019-05-30T23:52:52.065Z,93.50
2019-05-30T23:55:21.011Z,93.40
2019-05-30T23:57:52.706Z,93.40
